sensor_id;sensor_type;location;lat;lon;timestamp;P1;durP1;ratioP1;P2;durP2;ratioP2
12212;SDS011;6169;44.158;22.788;2023-04-25T00:00:44;23.25;;;15.85;;
12212;SDS011;6169;44.158;22.788;2023-04-25T00:05:46;24.35;;;14.30;;
12212;SDS011;6169;44.158;22.788;2023-04-25T00:10:50;20.25;;;15.77;;
12212;SDS011;6169;44.158;22.788;2023-04-25T00:15:52;22.95;;;16.25;;
12212;SDS011;6169;44.158;22.788;2023-04-25T00:20:54;21.20;;;15.57;;
12212;SDS011;6169;44.158;22.788;2023-04-25T00:25:58;21.38;;;15.60;;
12212;SDS011;6169;44.158;22.788;2023-04-25T00:31:01;18.27;;;14.77;;
12212;SDS011;6169;44.158;22.788;2023-04-25T00:36:03;20.05;;;15.57;;
12212;SDS011;6169;44.158;22.788;2023-04-25T00:41:07;19.80;;;14.98;;
12212;SDS011;6169;44.158;22.788;2023-04-25T00:46:09;20.58;;;14.65;;
12212;SDS011;6169;44.158;22.788;2023-04-25T00:51:12;16.95;;;14.35;;
12212;SDS011;6169;44.158;22.788;2023-04-25T00:56:18;18.25;;;14.48;;
12212;SDS011;6169;44.158;22.788;2023-04-25T01:01:22;17.55;;;12.63;;
12212;SDS011;6169;44.158;22.788;2023-04-25T01:06:24;16.95;;;13.40;;
12212;SDS011;6169;44.158;22.788;2023-04-25T01:11:29;20.17;;;14.10;;
12212;SDS011;6169;44.158;22.788;2023-04-25T01:16:31;21.75;;;15.20;;
12212;SDS011;6169;44.158;22.788;2023-04-25T01:21:35;23.25;;;17.25;;
12212;SDS011;6169;44.158;22.788;2023-04-25T01:26:37;31.48;;;17.13;;
12212;SDS011;6169;44.158;22.788;2023-04-25T01:31:41;18.17;;;14.32;;
12212;SDS011;6169;44.158;22.788;2023-04-25T01:36:45;26.23;;;15.82;;
12212;SDS011;6169;44.158;22.788;2023-04-25T01:41:50;16.23;;;14.50;;
12212;SDS011;6169;44.158;22.788;2023-04-25T01:46:52;16.80;;;13.80;;
12212;SDS011;6169;44.158;22.788;2023-04-25T01:51:56;19.65;;;15.55;;
12212;SDS011;6169;44.158;22.788;2023-04-25T01:56:58;19.33;;;14.02;;
12212;SDS011;6169;44.158;22.788;2023-04-25T02:02:01;21.08;;;15.70;;
12212;SDS011;6169;44.158;22.788;2023-04-25T02:07:05;35.08;;;22.58;;
12212;SDS011;6169;44.158;22.788;2023-04-25T02:12:08;35.33;;;21.80;;
12212;SDS011;6169;44.158;22.788;2023-04-25T02:17:11;50.65;;;26.63;;
12212;SDS011;6169;44.158;22.788;2023-04-25T02:22:15;43.95;;;25.75;;
12212;SDS011;6169;44.158;22.788;2023-04-25T02:27:17;42.00;;;23.35;;
12212;SDS011;6169;44.158;22.788;2023-04-25T02:32:20;46.17;;;23.00;;
12212;SDS011;6169;44.158;22.788;2023-04-25T02:37:23;46.13;;;26.10;;
12212;SDS011;6169;44.158;22.788;2023-04-25T02:42:25;26.45;;;16.98;;
12212;SDS011;6169;44.158;22.788;2023-04-25T02:47:28;21.20;;;14.43;;
12212;SDS011;6169;44.158;22.788;2023-04-25T02:52:32;20.80;;;16.08;;
12212;SDS011;6169;44.158;22.788;2023-04-25T02:57:34;20.55;;;13.80;;
12212;SDS011;6169;44.158;22.788;2023-04-25T03:02:36;19.50;;;15.77;;
12212;SDS011;6169;44.158;22.788;2023-04-25T03:07:39;26.65;;;16.60;;
12212;SDS011;6169;44.158;22.788;2023-04-25T03:12:43;27.00;;;17.00;;
12212;SDS011;6169;44.158;22.788;2023-04-25T03:17:45;36.83;;;19.58;;
12212;SDS011;6169;44.158;22.788;2023-04-25T03:22:49;25.25;;;17.23;;
12212;SDS011;6169;44.158;22.788;2023-04-25T03:27:51;34.47;;;17.45;;
12212;SDS011;6169;44.158;22.788;2023-04-25T03:32:53;27.67;;;16.70;;
12212;SDS011;6169;44.158;22.788;2023-04-25T03:37:57;30.00;;;16.83;;
12212;SDS011;6169;44.158;22.788;2023-04-25T03:42:59;28.55;;;18.15;;
12212;SDS011;6169;44.158;22.788;2023-04-25T03:48:01;29.25;;;16.77;;
12212;SDS011;6169;44.158;22.788;2023-04-25T03:53:04;27.42;;;16.42;;
12212;SDS011;6169;44.158;22.788;2023-04-25T03:58:07;25.65;;;15.45;;
12212;SDS011;6169;44.158;22.788;2023-04-25T04:03:09;29.40;;;17.70;;
12212;SDS011;6169;44.158;22.788;2023-04-25T04:08:13;29.92;;;20.08;;
12212;SDS011;6169;44.158;22.788;2023-04-25T04:13:15;33.75;;;19.60;;
12212;SDS011;6169;44.158;22.788;2023-04-25T04:18:17;32.20;;;19.63;;
12212;SDS011;6169;44.158;22.788;2023-04-25T04:23:21;30.23;;;18.15;;
12212;SDS011;6169;44.158;22.788;2023-04-25T04:28:23;32.25;;;19.33;;
12212;SDS011;6169;44.158;22.788;2023-04-25T04:33:25;30.40;;;19.30;;
12212;SDS011;6169;44.158;22.788;2023-04-25T04:38:30;31.20;;;18.83;;
12212;SDS011;6169;44.158;22.788;2023-04-25T04:43:32;30.02;;;19.48;;
12212;SDS011;6169;44.158;22.788;2023-04-25T04:48:34;30.13;;;20.77;;
12212;SDS011;6169;44.158;22.788;2023-04-25T04:53:38;36.08;;;19.92;;
12212;SDS011;6169;44.158;22.788;2023-04-25T04:58:41;32.80;;;19.75;;
12212;SDS011;6169;44.158;22.788;2023-04-25T05:03:43;30.70;;;20.15;;
12212;SDS011;6169;44.158;22.788;2023-04-25T05:08:46;27.73;;;17.80;;
12212;SDS011;6169;44.158;22.788;2023-04-25T05:13:49;30.25;;;17.20;;
12212;SDS011;6169;44.158;22.788;2023-04-25T05:18:51;25.80;;;18.92;;
12212;SDS011;6169;44.158;22.788;2023-04-25T05:23:54;27.38;;;17.90;;
12212;SDS011;6169;44.158;22.788;2023-04-25T05:28:57;24.75;;;16.67;;
12212;SDS011;6169;44.158;22.788;2023-04-25T05:33:59;22.65;;;15.07;;
12212;SDS011;6169;44.158;22.788;2023-04-25T05:39:03;27.13;;;17.27;;
12212;SDS011;6169;44.158;22.788;2023-04-25T05:44:06;23.35;;;14.75;;
12212;SDS011;6169;44.158;22.788;2023-04-25T05:49:08;12.75;;;9.02;;
12212;SDS011;6169;44.158;22.788;2023-04-25T05:54:11;9.20;;;7.88;;
12212;SDS011;6169;44.158;22.788;2023-04-25T05:59:14;9.45;;;7.55;;
12212;SDS011;6169;44.158;22.788;2023-04-25T06:04:16;8.70;;;6.47;;
12212;SDS011;6169;44.158;22.788;2023-04-25T06:09:19;9.30;;;7.25;;
12212;SDS011;6169;44.158;22.788;2023-04-25T06:14:21;24.13;;;7.78;;
12212;SDS011;6169;44.158;22.788;2023-04-25T06:19:24;7.35;;;5.93;;
12212;SDS011;6169;44.158;22.788;2023-04-25T06:24:27;6.85;;;4.75;;
12212;SDS011;6169;44.158;22.788;2023-04-25T06:29:29;4.15;;;3.70;;
12212;SDS011;6169;44.158;22.788;2023-04-25T06:34:32;5.50;;;3.90;;
12212;SDS011;6169;44.158;22.788;2023-04-25T06:39:35;4.05;;;3.30;;
12212;SDS011;6169;44.158;22.788;2023-04-25T06:44:38;8.48;;;4.22;;
12212;SDS011;6169;44.158;22.788;2023-04-25T06:49:40;4.97;;;2.88;;
12212;SDS011;6169;44.158;22.788;2023-04-25T06:54:43;4.78;;;3.05;;
12212;SDS011;6169;44.158;22.788;2023-04-25T06:59:45;3.80;;;1.95;;
12212;SDS011;6169;44.158;22.788;2023-04-25T07:04:47;6.60;;;2.80;;
12212;SDS011;6169;44.158;22.788;2023-04-25T07:09:51;3.95;;;2.15;;
12212;SDS011;6169;44.158;22.788;2023-04-25T07:14:53;7.03;;;3.65;;
12212;SDS011;6169;44.158;22.788;2023-04-25T07:19:55;8.00;;;3.53;;
12212;SDS011;6169;44.158;22.788;2023-04-25T07:24:59;6.10;;;3.05;;
12212;SDS011;6169;44.158;22.788;2023-04-25T07:30:01;3.05;;;1.58;;
12212;SDS011;6169;44.158;22.788;2023-04-25T07:35:04;6.00;;;2.13;;
12212;SDS011;6169;44.158;22.788;2023-04-25T07:40:09;4.80;;;1.98;;
12212;SDS011;6169;44.158;22.788;2023-04-25T07:45:12;3.15;;;1.45;;
12212;SDS011;6169;44.158;22.788;2023-04-25T07:50:15;4.82;;;1.98;;
12212;SDS011;6169;44.158;22.788;2023-04-25T07:55:19;2.92;;;1.60;;
12212;SDS011;6169;44.158;22.788;2023-04-25T08:00:21;2.08;;;1.25;;
12212;SDS011;6169;44.158;22.788;2023-04-25T08:05:23;2.47;;;0.82;;
12212;SDS011;6169;44.158;22.788;2023-04-25T08:10:27;1.98;;;0.82;;
12212;SDS011;6169;44.158;22.788;2023-04-25T08:15:29;15.85;;;9.20;;
12212;SDS011;6169;44.158;22.788;2023-04-25T08:20:31;1.48;;;1.25;;
12212;SDS011;6169;44.158;22.788;2023-04-25T08:25:35;16.98;;;10.82;;
12212;SDS011;6169;44.158;22.788;2023-04-25T08:30:37;4.05;;;2.33;;
12212;SDS011;6169;44.158;22.788;2023-04-25T08:35:39;1.80;;;1.30;;
12212;SDS011;6169;44.158;22.788;2023-04-25T08:40:43;3.15;;;1.90;;
12212;SDS011;6169;44.158;22.788;2023-04-25T08:45:50;0.73;;;0.70;;
12212;SDS011;6169;44.158;22.788;2023-04-25T08:50:55;22.00;;;17.92;;
12212;SDS011;6169;44.158;22.788;2023-04-25T08:56:00;22.15;;;15.88;;
12212;SDS011;6169;44.158;22.788;2023-04-25T09:01:03;11.00;;;7.65;;
12212;SDS011;6169;44.158;22.788;2023-04-25T09:06:05;32.42;;;24.33;;
12212;SDS011;6169;44.158;22.788;2023-04-25T09:11:09;22.70;;;15.00;;
12212;SDS011;6169;44.158;22.788;2023-04-25T09:16:11;13.15;;;7.93;;
12212;SDS011;6169;44.158;22.788;2023-04-25T09:21:14;7.30;;;4.53;;
12212;SDS011;6169;44.158;22.788;2023-04-25T09:26:18;5.60;;;3.75;;
12212;SDS011;6169;44.158;22.788;2023-04-25T09:31:22;6.40;;;4.65;;
12212;SDS011;6169;44.158;22.788;2023-04-25T09:36:26;5.35;;;4.63;;
12212;SDS011;6169;44.158;22.788;2023-04-25T09:41:30;2.60;;;2.28;;
12212;SDS011;6169;44.158;22.788;2023-04-25T09:46:33;4.22;;;3.03;;
12212;SDS011;6169;44.158;22.788;2023-04-25T09:51:36;2.20;;;1.30;;
12212;SDS011;6169;44.158;22.788;2023-04-25T09:56:40;3.55;;;1.63;;
12212;SDS011;6169;44.158;22.788;2023-04-25T10:01:43;3.25;;;1.35;;
12212;SDS011;6169;44.158;22.788;2023-04-25T10:06:45;3.22;;;2.35;;
12212;SDS011;6169;44.158;22.788;2023-04-25T10:11:51;4.63;;;1.27;;
12212;SDS011;6169;44.158;22.788;2023-04-25T10:16:54;1.30;;;0.98;;
12212;SDS011;6169;44.158;22.788;2023-04-25T10:22:01;1.33;;;0.75;;
12212;SDS011;6169;44.158;22.788;2023-04-25T10:27:07;1.65;;;1.13;;
12212;SDS011;6169;44.158;22.788;2023-04-25T10:32:09;3.35;;;2.50;;
12212;SDS011;6169;44.158;22.788;2023-04-25T10:37:12;2.58;;;0.63;;
12212;SDS011;6169;44.158;22.788;2023-04-25T10:42:16;0.10;;;0.10;;
12212;SDS011;6169;44.158;22.788;2023-04-25T10:47:19;1.17;;;0.20;;
12212;SDS011;6169;44.158;22.788;2023-04-25T10:52:38;1.23;;;0.55;;
12212;SDS011;6169;44.158;22.788;2023-04-25T10:57:43;1.40;;;0.50;;
12212;SDS011;6169;44.158;22.788;2023-04-25T11:02:48;3.53;;;1.20;;
12212;SDS011;6169;44.158;22.788;2023-04-25T11:07:53;1.52;;;0.95;;
12212;SDS011;6169;44.158;22.788;2023-04-25T11:12:59;0.40;;;0.40;;
12212;SDS011;6169;44.158;22.788;2023-04-25T11:18:01;0.50;;;0.50;;
12212;SDS011;6169;44.158;22.788;2023-04-25T11:23:04;1.83;;;1.63;;
12212;SDS011;6169;44.158;22.788;2023-04-25T11:28:07;2.80;;;1.55;;
12212;SDS011;6169;44.158;22.788;2023-04-25T11:33:10;2.22;;;1.50;;
12212;SDS011;6169;44.158;22.788;2023-04-25T11:38:12;1.63;;;1.23;;
12212;SDS011;6169;44.158;22.788;2023-04-25T11:43:16;1.30;;;1.20;;
12212;SDS011;6169;44.158;22.788;2023-04-25T11:48:19;3.17;;;2.08;;
12212;SDS011;6169;44.158;22.788;2023-04-25T11:53:22;2.08;;;1.95;;
12212;SDS011;6169;44.158;22.788;2023-04-25T11:58:26;6.55;;;3.63;;
12212;SDS011;6169;44.158;22.788;2023-04-25T12:03:29;2.45;;;2.25;;
12212;SDS011;6169;44.158;22.788;2023-04-25T12:08:33;2.53;;;2.33;;
12212;SDS011;6169;44.158;22.788;2023-04-25T12:13:37;1.90;;;1.75;;
12212;SDS011;6169;44.158;22.788;2023-04-25T12:18:39;2.35;;;2.15;;
12212;SDS011;6169;44.158;22.788;2023-04-25T12:23:41;3.00;;;2.78;;
12212;SDS011;6169;44.158;22.788;2023-04-25T12:28:44;7.93;;;3.25;;
12212;SDS011;6169;44.158;22.788;2023-04-25T12:33:47;5.28;;;3.28;;
12212;SDS011;6169;44.158;22.788;2023-04-25T12:38:49;4.90;;;4.43;;
12212;SDS011;6169;44.158;22.788;2023-04-25T12:43:52;6.05;;;4.80;;
12212;SDS011;6169;44.158;22.788;2023-04-25T12:48:55;5.97;;;5.38;;
12212;SDS011;6169;44.158;22.788;2023-04-25T12:53:57;4.82;;;4.28;;
12212;SDS011;6169;44.158;22.788;2023-04-25T12:59:01;4.55;;;4.25;;
12212;SDS011;6169;44.158;22.788;2023-04-25T13:04:03;4.70;;;4.30;;
12212;SDS011;6169;44.158;22.788;2023-04-25T13:09:05;7.43;;;4.40;;
12212;SDS011;6169;44.158;22.788;2023-04-25T13:14:10;5.57;;;4.88;;
12212;SDS011;6169;44.158;22.788;2023-04-25T13:19:12;5.50;;;5.00;;
12212;SDS011;6169;44.158;22.788;2023-04-25T13:24:14;5.80;;;3.38;;
12212;SDS011;6169;44.158;22.788;2023-04-25T13:29:18;4.47;;;4.10;;
12212;SDS011;6169;44.158;22.788;2023-04-25T13:34:20;3.75;;;3.45;;
12212;SDS011;6169;44.158;22.788;2023-04-25T13:39:22;6.75;;;3.75;;
12212;SDS011;6169;44.158;22.788;2023-04-25T13:44:26;6.35;;;4.10;;
12212;SDS011;6169;44.158;22.788;2023-04-25T13:49:28;2.65;;;1.60;;
12212;SDS011;6169;44.158;22.788;2023-04-25T13:54:30;2.30;;;2.10;;
12212;SDS011;6169;44.158;22.788;2023-04-25T13:59:33;2.65;;;2.03;;
12212;SDS011;6169;44.158;22.788;2023-04-25T14:04:36;23.67;;;13.52;;
12212;SDS011;6169;44.158;22.788;2023-04-25T14:09:38;11.88;;;9.13;;
12212;SDS011;6169;44.158;22.788;2023-04-25T14:14:41;2.78;;;2.22;;
12212;SDS011;6169;44.158;22.788;2023-04-25T14:19:43;3.17;;;2.72;;
12212;SDS011;6169;44.158;22.788;2023-04-25T14:24:48;6.05;;;3.03;;
12212;SDS011;6169;44.158;22.788;2023-04-25T14:29:51;3.63;;;3.33;;
12212;SDS011;6169;44.158;22.788;2023-04-25T14:34:53;4.40;;;4.00;;
12212;SDS011;6169;44.158;22.788;2023-04-25T14:39:55;3.97;;;3.35;;
12212;SDS011;6169;44.158;22.788;2023-04-25T14:44:59;5.93;;;5.32;;
12212;SDS011;6169;44.158;22.788;2023-04-25T14:50:01;6.90;;;5.75;;
12212;SDS011;6169;44.158;22.788;2023-04-25T14:55:04;4.63;;;4.22;;
12212;SDS011;6169;44.158;22.788;2023-04-25T15:00:09;5.60;;;4.90;;
12212;SDS011;6169;44.158;22.788;2023-04-25T15:05:15;9.27;;;4.45;;
12212;SDS011;6169;44.158;22.788;2023-04-25T15:10:18;6.20;;;4.70;;
12212;SDS011;6169;44.158;22.788;2023-04-25T15:15:22;5.65;;;4.75;;
12212;SDS011;6169;44.158;22.788;2023-04-25T15:20:24;4.95;;;3.88;;
12212;SDS011;6169;44.158;22.788;2023-04-25T15:25:27;3.92;;;3.60;;
12212;SDS011;6169;44.158;22.788;2023-04-25T15:30:31;4.70;;;4.07;;
12212;SDS011;6169;44.158;22.788;2023-04-25T15:35:33;3.60;;;3.25;;
12212;SDS011;6169;44.158;22.788;2023-04-25T15:40:35;3.45;;;3.15;;
12212;SDS011;6169;44.158;22.788;2023-04-25T15:45:39;4.05;;;3.75;;
12212;SDS011;6169;44.158;22.788;2023-04-25T15:50:41;5.85;;;3.13;;
12212;SDS011;6169;44.158;22.788;2023-04-25T15:55:43;3.40;;;3.10;;
12212;SDS011;6169;44.158;22.788;2023-04-25T16:00:47;2.75;;;2.55;;
12212;SDS011;6169;44.158;22.788;2023-04-25T16:05:51;3.03;;;2.25;;
12212;SDS011;6169;44.158;22.788;2023-04-25T16:10:53;2.50;;;2.30;;
12212;SDS011;6169;44.158;22.788;2023-04-25T16:15:57;2.70;;;2.47;;
12212;SDS011;6169;44.158;22.788;2023-04-25T16:20:59;2.55;;;2.35;;
12212;SDS011;6169;44.158;22.788;2023-04-25T16:26:01;4.15;;;2.33;;
12212;SDS011;6169;44.158;22.788;2023-04-25T16:31:05;4.53;;;2.58;;
12212;SDS011;6169;44.158;22.788;2023-04-25T16:36:07;3.15;;;2.17;;
12212;SDS011;6169;44.158;22.788;2023-04-25T16:41:12;5.90;;;4.07;;
12212;SDS011;6169;44.158;22.788;2023-04-25T16:46:15;10.70;;;6.85;;
12212;SDS011;6169;44.158;22.788;2023-04-25T16:51:19;4.18;;;2.40;;
12212;SDS011;6169;44.158;22.788;2023-04-25T16:56:21;6.05;;;2.88;;
12212;SDS011;6169;44.158;22.788;2023-04-25T17:01:25;9.05;;;4.97;;
12212;SDS011;6169;44.158;22.788;2023-04-25T17:06:27;2.70;;;2.15;;
12212;SDS011;6169;44.158;22.788;2023-04-25T17:11:30;2.72;;;2.35;;
12212;SDS011;6169;44.158;22.788;2023-04-25T17:16:37;2.88;;;1.95;;
12212;SDS011;6169;44.158;22.788;2023-04-25T17:21:39;4.30;;;2.53;;
12212;SDS011;6169;44.158;22.788;2023-04-25T17:26:42;2.03;;;1.80;;
12212;SDS011;6169;44.158;22.788;2023-04-25T17:31:45;2.50;;;1.90;;
12212;SDS011;6169;44.158;22.788;2023-04-25T17:36:48;4.10;;;1.80;;
12212;SDS011;6169;44.158;22.788;2023-04-25T17:41:50;2.53;;;2.33;;
12212;SDS011;6169;44.158;22.788;2023-04-25T17:46:53;3.72;;;2.28;;
12212;SDS011;6169;44.158;22.788;2023-04-25T17:51:55;1.42;;;1.30;;
12212;SDS011;6169;44.158;22.788;2023-04-25T17:56:58;1.90;;;1.80;;
12212;SDS011;6169;44.158;22.788;2023-04-25T18:02:01;3.17;;;2.25;;
12212;SDS011;6169;44.158;22.788;2023-04-25T18:07:04;3.60;;;1.75;;
12212;SDS011;6169;44.158;22.788;2023-04-25T18:12:06;3.85;;;2.08;;
12212;SDS011;6169;44.158;22.788;2023-04-25T18:17:10;4.00;;;1.92;;
12212;SDS011;6169;44.158;22.788;2023-04-25T18:22:13;3.50;;;2.15;;
12212;SDS011;6169;44.158;22.788;2023-04-25T18:27:16;5.13;;;2.55;;
12212;SDS011;6169;44.158;22.788;2023-04-25T18:32:20;4.57;;;2.38;;
12212;SDS011;6169;44.158;22.788;2023-04-25T18:37:23;3.58;;;2.42;;
12212;SDS011;6169;44.158;22.788;2023-04-25T18:42:25;5.25;;;3.25;;
12212;SDS011;6169;44.158;22.788;2023-04-25T18:47:30;2.80;;;2.60;;
12212;SDS011;6169;44.158;22.788;2023-04-25T18:52:32;3.17;;;2.33;;
12212;SDS011;6169;44.158;22.788;2023-04-25T18:57:35;2.70;;;2.50;;
12212;SDS011;6169;44.158;22.788;2023-04-25T19:02:39;6.68;;;2.55;;
12212;SDS011;6169;44.158;22.788;2023-04-25T19:07:42;5.78;;;2.55;;
12212;SDS011;6169;44.158;22.788;2023-04-25T19:12:44;2.67;;;2.47;;
12212;SDS011;6169;44.158;22.788;2023-04-25T19:17:49;2.97;;;2.70;;
12212;SDS011;6169;44.158;22.788;2023-04-25T19:22:52;3.45;;;3.00;;
12212;SDS011;6169;44.158;22.788;2023-04-25T19:27:56;7.00;;;4.28;;
12212;SDS011;6169;44.158;22.788;2023-04-25T19:33:01;3.30;;;3.00;;
12212;SDS011;6169;44.158;22.788;2023-04-25T19:38:03;3.28;;;2.97;;
12212;SDS011;6169;44.158;22.788;2023-04-25T19:43:06;3.25;;;2.75;;
12212;SDS011;6169;44.158;22.788;2023-04-25T19:48:10;5.25;;;3.70;;
12212;SDS011;6169;44.158;22.788;2023-04-25T19:53:13;3.63;;;3.05;;
12212;SDS011;6169;44.158;22.788;2023-04-25T19:58:16;5.95;;;3.53;;
12212;SDS011;6169;44.158;22.788;2023-04-25T20:03:20;4.70;;;3.45;;
12212;SDS011;6169;44.158;22.788;2023-04-25T20:08:22;4.15;;;3.67;;
12212;SDS011;6169;44.158;22.788;2023-04-25T20:13:26;4.63;;;4.22;;
12212;SDS011;6169;44.158;22.788;2023-04-25T20:18:30;4.60;;;3.45;;
12212;SDS011;6169;44.158;22.788;2023-04-25T20:23:32;4.68;;;3.42;;
12212;SDS011;6169;44.158;22.788;2023-04-25T20:28:34;3.65;;;3.35;;
12212;SDS011;6169;44.158;22.788;2023-04-25T20:33:39;7.60;;;4.05;;
12212;SDS011;6169;44.158;22.788;2023-04-25T20:38:42;4.05;;;3.75;;
12212;SDS011;6169;44.158;22.788;2023-04-25T20:43:45;4.63;;;4.15;;
12212;SDS011;6169;44.158;22.788;2023-04-25T20:48:50;4.93;;;3.72;;
12212;SDS011;6169;44.158;22.788;2023-04-25T20:53:52;7.68;;;4.53;;
12212;SDS011;6169;44.158;22.788;2023-04-25T20:58:54;4.18;;;3.65;;
12212;SDS011;6169;44.158;22.788;2023-04-25T21:03:58;7.57;;;4.57;;
12212;SDS011;6169;44.158;22.788;2023-04-25T21:09:01;5.30;;;3.65;;
12212;SDS011;6169;44.158;22.788;2023-04-25T21:14:03;6.93;;;4.10;;
12212;SDS011;6169;44.158;22.788;2023-04-25T21:19:08;5.18;;;3.95;;
12212;SDS011;6169;44.158;22.788;2023-04-25T21:24:12;5.45;;;4.43;;
12212;SDS011;6169;44.158;22.788;2023-04-25T21:29:14;4.63;;;4.18;;
12212;SDS011;6169;44.158;22.788;2023-04-25T21:34:18;4.75;;;4.20;;
12212;SDS011;6169;44.158;22.788;2023-04-25T21:39:20;4.72;;;4.32;;
12212;SDS011;6169;44.158;22.788;2023-04-25T21:44:22;5.55;;;4.25;;
12212;SDS011;6169;44.158;22.788;2023-04-25T21:49:26;5.63;;;5.05;;
12212;SDS011;6169;44.158;22.788;2023-04-25T21:54:28;6.57;;;4.53;;
12212;SDS011;6169;44.158;22.788;2023-04-25T21:59:31;4.15;;;3.85;;
12212;SDS011;6169;44.158;22.788;2023-04-25T22:04:36;5.07;;;3.92;;
12212;SDS011;6169;44.158;22.788;2023-04-25T22:09:38;4.32;;;3.95;;
12212;SDS011;6169;44.158;22.788;2023-04-25T22:14:40;4.47;;;3.05;;
12212;SDS011;6169;44.158;22.788;2023-04-25T22:19:45;4.15;;;3.72;;
12212;SDS011;6169;44.158;22.788;2023-04-25T22:24:47;6.22;;;3.95;;
12212;SDS011;6169;44.158;22.788;2023-04-25T22:29:49;4.10;;;3.67;;
12212;SDS011;6169;44.158;22.788;2023-04-25T22:34:53;5.75;;;4.70;;
12212;SDS011;6169;44.158;22.788;2023-04-25T22:39:55;4.50;;;4.05;;
12212;SDS011;6169;44.158;22.788;2023-04-25T22:44:58;8.02;;;4.50;;
12212;SDS011;6169;44.158;22.788;2023-04-25T22:50:02;4.78;;;4.28;;
12212;SDS011;6169;44.158;22.788;2023-04-25T22:55:06;4.53;;;4.07;;
12212;SDS011;6169;44.158;22.788;2023-04-25T23:00:10;4.40;;;3.88;;
12212;SDS011;6169;44.158;22.788;2023-04-25T23:05:19;5.82;;;3.63;;
12212;SDS011;6169;44.158;22.788;2023-04-25T23:10:23;10.00;;;4.03;;
12212;SDS011;6169;44.158;22.788;2023-04-25T23:15:25;4.55;;;4.15;;
12212;SDS011;6169;44.158;22.788;2023-04-25T23:20:31;3.92;;;3.33;;
12212;SDS011;6169;44.158;22.788;2023-04-25T23:25:36;5.43;;;3.75;;
12212;SDS011;6169;44.158;22.788;2023-04-25T23:30:39;4.50;;;4.05;;
12212;SDS011;6169;44.158;22.788;2023-04-25T23:35:42;4.60;;;4.20;;
12212;SDS011;6169;44.158;22.788;2023-04-25T23:40:45;4.70;;;3.65;;
12212;SDS011;6169;44.158;22.788;2023-04-25T23:45:47;4.57;;;3.25;;
12212;SDS011;6169;44.158;22.788;2023-04-25T23:50:52;4.05;;;3.33;;
12212;SDS011;6169;44.158;22.788;2023-04-25T23:55:55;4.53;;;3.55;;
